sensor_id;sensor_type;location;lat;lon;timestamp;P1;durP1;ratioP1;P2;durP2;ratioP2
44228;SDS011;29904;51.058;5.378;2022-10-16T00:01:19;1.60;;;0.60;;
44228;SDS011;29904;51.058;5.378;2022-10-16T00:03:48;1.40;;;0.60;;
44228;SDS011;29904;51.058;5.378;2022-10-16T00:06:14;2.58;;;0.80;;
44228;SDS011;29904;51.058;5.378;2022-10-16T00:08:41;2.03;;;0.70;;
44228;SDS011;29904;51.058;5.378;2022-10-16T00:11:29;1.77;;;0.60;;
44228;SDS011;29904;51.058;5.378;2022-10-16T00:14:04;2.88;;;0.70;;
44228;SDS011;29904;51.058;5.378;2022-10-16T00:16:32;1.92;;;0.70;;
44228;SDS011;29904;51.058;5.378;2022-10-16T00:18:59;1.08;;;0.60;;
44228;SDS011;29904;51.058;5.378;2022-10-16T00:21:25;1.67;;;0.50;;
44228;SDS011;29904;51.058;5.378;2022-10-16T00:23:54;1.40;;;0.50;;
44228;SDS011;29904;51.058;5.378;2022-10-16T00:26:24;0.52;;;0.40;;
44228;SDS011;29904;51.058;5.378;2022-10-16T00:28:52;3.05;;;0.70;;
44228;SDS011;29904;51.058;5.378;2022-10-16T00:31:20;1.00;;;0.50;;
44228;SDS011;29904;51.058;5.378;2022-10-16T00:33:47;1.55;;;0.60;;
44228;SDS011;29904;51.058;5.378;2022-10-16T00:36:15;1.13;;;0.50;;
44228;SDS011;29904;51.058;5.378;2022-10-16T00:38:43;0.90;;;0.60;;
44228;SDS011;29904;51.058;5.378;2022-10-16T00:41:14;1.95;;;0.50;;
44228;SDS011;29904;51.058;5.378;2022-10-16T00:46:51;1.20;;;0.60;;
44228;SDS011;29904;51.058;5.378;2022-10-16T00:49:18;1.10;;;0.60;;
44228;SDS011;29904;51.058;5.378;2022-10-16T00:51:46;1.95;;;0.50;;
44228;SDS011;29904;51.058;5.378;2022-10-16T00:56:49;3.70;;;0.60;;
44228;SDS011;29904;51.058;5.378;2022-10-16T00:59:18;1.10;;;0.50;;
44228;SDS011;29904;51.058;5.378;2022-10-16T01:01:51;1.48;;;0.52;;
44228;SDS011;29904;51.058;5.378;2022-10-16T01:04:20;0.68;;;0.40;;
44228;SDS011;29904;51.058;5.378;2022-10-16T01:06:55;2.60;;;0.60;;
44228;SDS011;29904;51.058;5.378;2022-10-16T01:09:37;1.50;;;0.43;;
44228;SDS011;29904;51.058;5.378;2022-10-16T01:15:17;0.70;;;0.40;;
44228;SDS011;29904;51.058;5.378;2022-10-16T01:20:31;0.80;;;0.50;;
44228;SDS011;29904;51.058;5.378;2022-10-16T01:25:55;0.93;;;0.50;;
44228;SDS011;29904;51.058;5.378;2022-10-16T01:28:52;0.90;;;0.47;;
44228;SDS011;29904;51.058;5.378;2022-10-16T01:31:19;1.60;;;0.50;;
44228;SDS011;29904;51.058;5.378;2022-10-16T01:34:10;1.40;;;0.52;;
44228;SDS011;29904;51.058;5.378;2022-10-16T01:36:53;2.78;;;0.60;;
44228;SDS011;29904;51.058;5.378;2022-10-16T01:39:22;1.13;;;0.47;;
44228;SDS011;29904;51.058;5.378;2022-10-16T01:41:55;2.35;;;0.55;;
44228;SDS011;29904;51.058;5.378;2022-10-16T01:44:29;1.63;;;0.50;;
44228;SDS011;29904;51.058;5.378;2022-10-16T01:46:57;2.33;;;0.63;;
44228;SDS011;29904;51.058;5.378;2022-10-16T01:49:26;1.30;;;0.40;;
44228;SDS011;29904;51.058;5.378;2022-10-16T01:51:59;1.05;;;0.50;;
44228;SDS011;29904;51.058;5.378;2022-10-16T01:54:28;1.05;;;0.40;;
44228;SDS011;29904;51.058;5.378;2022-10-16T01:56:56;1.08;;;0.55;;
44228;SDS011;29904;51.058;5.378;2022-10-16T01:59:24;1.70;;;0.50;;
44228;SDS011;29904;51.058;5.378;2022-10-16T02:01:58;0.63;;;0.40;;
44228;SDS011;29904;51.058;5.378;2022-10-16T02:04:30;1.15;;;0.50;;
44228;SDS011;29904;51.058;5.378;2022-10-16T02:06:59;1.08;;;0.50;;
44228;SDS011;29904;51.058;5.378;2022-10-16T02:09:25;0.80;;;0.50;;
44228;SDS011;29904;51.058;5.378;2022-10-16T02:11:55;0.80;;;0.50;;
44228;SDS011;29904;51.058;5.378;2022-10-16T02:14:27;0.70;;;0.50;;
44228;SDS011;29904;51.058;5.378;2022-10-16T02:16:53;1.15;;;0.50;;
44228;SDS011;29904;51.058;5.378;2022-10-16T02:19:19;1.00;;;0.40;;
44228;SDS011;29904;51.058;5.378;2022-10-16T02:29:55;1.02;;;0.50;;
44228;SDS011;29904;51.058;5.378;2022-10-16T02:32:37;2.58;;;0.50;;
44228;SDS011;29904;51.058;5.378;2022-10-16T02:35:06;1.70;;;0.52;;
44228;SDS011;29904;51.058;5.378;2022-10-16T02:37:35;2.53;;;0.60;;
44228;SDS011;29904;51.058;5.378;2022-10-16T02:40:03;1.88;;;0.50;;
44228;SDS011;29904;51.058;5.378;2022-10-16T02:42:34;1.13;;;0.52;;
44228;SDS011;29904;51.058;5.378;2022-10-16T02:45:02;1.23;;;0.60;;
44228;SDS011;29904;51.058;5.378;2022-10-16T02:47:28;1.17;;;0.70;;
44228;SDS011;29904;51.058;5.378;2022-10-16T02:49:54;1.20;;;0.70;;
44228;SDS011;29904;51.058;5.378;2022-10-16T02:52:22;1.08;;;0.52;;
44228;SDS011;29904;51.058;5.378;2022-10-16T02:54:48;1.40;;;0.60;;
44228;SDS011;29904;51.058;5.378;2022-10-16T02:57:13;1.30;;;0.52;;
44228;SDS011;29904;51.058;5.378;2022-10-16T02:59:39;1.23;;;0.60;;
44228;SDS011;29904;51.058;5.378;2022-10-16T03:02:07;0.88;;;0.50;;
44228;SDS011;29904;51.058;5.378;2022-10-16T03:04:32;2.03;;;0.50;;
44228;SDS011;29904;51.058;5.378;2022-10-16T03:06:58;1.00;;;0.52;;
44228;SDS011;29904;51.058;5.378;2022-10-16T03:09:24;2.10;;;0.60;;
44228;SDS011;29904;51.058;5.378;2022-10-16T03:11:50;1.00;;;0.50;;
44228;SDS011;29904;51.058;5.378;2022-10-16T03:14:15;1.90;;;0.65;;
44228;SDS011;29904;51.058;5.378;2022-10-16T03:16:43;2.30;;;0.70;;
44228;SDS011;29904;51.058;5.378;2022-10-16T03:19:09;1.93;;;0.63;;
44228;SDS011;29904;51.058;5.378;2022-10-16T03:21:34;0.73;;;0.50;;
44228;SDS011;29904;51.058;5.378;2022-10-16T03:24:00;1.23;;;0.60;;
44228;SDS011;29904;51.058;5.378;2022-10-16T03:26:26;1.90;;;0.50;;
44228;SDS011;29904;51.058;5.378;2022-10-16T03:28:52;1.13;;;0.50;;
44228;SDS011;29904;51.058;5.378;2022-10-16T03:31:17;0.90;;;0.50;;
44228;SDS011;29904;51.058;5.378;2022-10-16T03:33:43;0.70;;;0.50;;
44228;SDS011;29904;51.058;5.378;2022-10-16T03:36:09;1.47;;;0.50;;
44228;SDS011;29904;51.058;5.378;2022-10-16T03:38:34;0.70;;;0.40;;
44228;SDS011;29904;51.058;5.378;2022-10-16T03:41:00;0.50;;;0.50;;
44228;SDS011;29904;51.058;5.378;2022-10-16T03:43:26;0.80;;;0.50;;
44228;SDS011;29904;51.058;5.378;2022-10-16T03:45:52;1.38;;;0.60;;
44228;SDS011;29904;51.058;5.378;2022-10-16T03:48:20;1.67;;;0.70;;
44228;SDS011;29904;51.058;5.378;2022-10-16T03:50:48;0.70;;;0.50;;
44228;SDS011;29904;51.058;5.378;2022-10-16T03:53:15;1.45;;;0.57;;
44228;SDS011;29904;51.058;5.378;2022-10-16T03:55:41;3.17;;;0.70;;
44228;SDS011;29904;51.058;5.378;2022-10-16T03:58:08;1.50;;;0.70;;
44228;SDS011;29904;51.058;5.378;2022-10-16T04:00:33;1.67;;;0.70;;
44228;SDS011;29904;51.058;5.378;2022-10-16T04:02:59;1.50;;;0.60;;
44228;SDS011;29904;51.058;5.378;2022-10-16T04:05:26;1.50;;;0.50;;
44228;SDS011;29904;51.058;5.378;2022-10-16T04:07:51;2.45;;;0.60;;
44228;SDS011;29904;51.058;5.378;2022-10-16T04:10:17;2.43;;;0.80;;
44228;SDS011;29904;51.058;5.378;2022-10-16T04:12:44;1.10;;;0.68;;
44228;SDS011;29904;51.058;5.378;2022-10-16T04:15:09;0.80;;;0.55;;
44228;SDS011;29904;51.058;5.378;2022-10-16T04:17:35;2.58;;;0.70;;
44228;SDS011;29904;51.058;5.378;2022-10-16T04:20:01;1.40;;;0.67;;
44228;SDS011;29904;51.058;5.378;2022-10-16T04:22:29;2.25;;;0.70;;
44228;SDS011;29904;51.058;5.378;2022-10-16T04:24:54;1.53;;;0.60;;
44228;SDS011;29904;51.058;5.378;2022-10-16T04:27:20;1.00;;;0.60;;
44228;SDS011;29904;51.058;5.378;2022-10-16T04:29:46;2.13;;;0.70;;
44228;SDS011;29904;51.058;5.378;2022-10-16T04:32:12;1.55;;;0.70;;
44228;SDS011;29904;51.058;5.378;2022-10-16T04:34:38;2.30;;;0.70;;
44228;SDS011;29904;51.058;5.378;2022-10-16T04:37:05;0.75;;;0.55;;
44228;SDS011;29904;51.058;5.378;2022-10-16T04:39:31;1.25;;;0.60;;
44228;SDS011;29904;51.058;5.378;2022-10-16T04:41:57;2.03;;;0.70;;
44228;SDS011;29904;51.058;5.378;2022-10-16T04:44:22;1.40;;;0.70;;
44228;SDS011;29904;51.058;5.378;2022-10-16T04:46:50;1.20;;;0.70;;
44228;SDS011;29904;51.058;5.378;2022-10-16T04:49:16;1.60;;;0.70;;
44228;SDS011;29904;51.058;5.378;2022-10-16T04:51:41;1.58;;;0.70;;
44228;SDS011;29904;51.058;5.378;2022-10-16T04:54:08;1.48;;;0.90;;
44228;SDS011;29904;51.058;5.378;2022-10-16T04:56:34;1.75;;;1.00;;
44228;SDS011;29904;51.058;5.378;2022-10-16T04:59:08;2.25;;;0.77;;
44228;SDS011;29904;51.058;5.378;2022-10-16T05:01:36;1.45;;;0.70;;
44228;SDS011;29904;51.058;5.378;2022-10-16T05:04:01;0.93;;;0.70;;
44228;SDS011;29904;51.058;5.378;2022-10-16T05:06:27;0.93;;;0.70;;
44228;SDS011;29904;51.058;5.378;2022-10-16T05:08:53;1.80;;;1.03;;
44228;SDS011;29904;51.058;5.378;2022-10-16T05:11:18;1.70;;;0.80;;
44228;SDS011;29904;51.058;5.378;2022-10-16T05:13:44;1.90;;;0.70;;
44228;SDS011;29904;51.058;5.378;2022-10-16T05:16:12;1.85;;;0.90;;
44228;SDS011;29904;51.058;5.378;2022-10-16T05:18:37;1.90;;;0.80;;
44228;SDS011;29904;51.058;5.378;2022-10-16T05:21:03;1.20;;;0.80;;
44228;SDS011;29904;51.058;5.378;2022-10-16T05:23:31;2.08;;;0.85;;
44228;SDS011;29904;51.058;5.378;2022-10-16T05:25:57;1.50;;;0.70;;
44228;SDS011;29904;51.058;5.378;2022-10-16T05:28:28;2.90;;;0.98;;
44228;SDS011;29904;51.058;5.378;2022-10-16T05:30:55;2.85;;;0.80;;
44228;SDS011;29904;51.058;5.378;2022-10-16T05:33:21;2.08;;;0.90;;
44228;SDS011;29904;51.058;5.378;2022-10-16T05:35:48;2.13;;;0.80;;
44228;SDS011;29904;51.058;5.378;2022-10-16T05:38:15;1.50;;;0.80;;
44228;SDS011;29904;51.058;5.378;2022-10-16T05:40:41;2.00;;;0.90;;
44228;SDS011;29904;51.058;5.378;2022-10-16T05:43:07;1.60;;;1.00;;
44228;SDS011;29904;51.058;5.378;2022-10-16T05:45:34;2.38;;;0.95;;
44228;SDS011;29904;51.058;5.378;2022-10-16T05:48:00;1.52;;;0.90;;
44228;SDS011;29904;51.058;5.378;2022-10-16T05:50:26;3.90;;;1.00;;
44228;SDS011;29904;51.058;5.378;2022-10-16T05:52:52;2.00;;;1.00;;
44228;SDS011;29904;51.058;5.378;2022-10-16T05:55:21;1.70;;;0.90;;
44228;SDS011;29904;51.058;5.378;2022-10-16T05:57:47;1.80;;;1.00;;
44228;SDS011;29904;51.058;5.378;2022-10-16T06:00:12;2.35;;;1.00;;
44228;SDS011;29904;51.058;5.378;2022-10-16T06:02:40;4.35;;;1.00;;
44228;SDS011;29904;51.058;5.378;2022-10-16T06:05:06;2.38;;;1.00;;
44228;SDS011;29904;51.058;5.378;2022-10-16T06:07:35;1.55;;;1.05;;
44228;SDS011;29904;51.058;5.378;2022-10-16T06:10:01;2.28;;;1.10;;
44228;SDS011;29904;51.058;5.378;2022-10-16T06:12:28;1.88;;;1.00;;
44228;SDS011;29904;51.058;5.378;2022-10-16T06:14:53;2.10;;;1.10;;
44228;SDS011;29904;51.058;5.378;2022-10-16T06:17:19;2.80;;;1.07;;
44228;SDS011;29904;51.058;5.378;2022-10-16T06:19:45;2.50;;;1.00;;
44228;SDS011;29904;51.058;5.378;2022-10-16T06:22:10;2.47;;;1.27;;
44228;SDS011;29904;51.058;5.378;2022-10-16T06:24:37;2.37;;;1.17;;
44228;SDS011;29904;51.058;5.378;2022-10-16T06:27:03;2.00;;;1.30;;
44228;SDS011;29904;51.058;5.378;2022-10-16T06:29:29;2.20;;;1.10;;
44228;SDS011;29904;51.058;5.378;2022-10-16T06:31:55;2.67;;;1.17;;
44228;SDS011;29904;51.058;5.378;2022-10-16T06:34:21;2.45;;;1.20;;
44228;SDS011;29904;51.058;5.378;2022-10-16T06:36:46;1.33;;;1.10;;
44228;SDS011;29904;51.058;5.378;2022-10-16T06:39:12;2.07;;;1.00;;
44228;SDS011;29904;51.058;5.378;2022-10-16T06:41:38;3.53;;;1.30;;
44228;SDS011;29904;51.058;5.378;2022-10-16T06:44:06;2.90;;;1.20;;
44228;SDS011;29904;51.058;5.378;2022-10-16T06:46:33;2.15;;;1.20;;
44228;SDS011;29904;51.058;5.378;2022-10-16T06:48:59;1.70;;;1.10;;
44228;SDS011;29904;51.058;5.378;2022-10-16T06:51:25;2.78;;;1.10;;
44228;SDS011;29904;51.058;5.378;2022-10-16T06:53:55;2.60;;;1.20;;
44228;SDS011;29904;51.058;5.378;2022-10-16T06:56:24;3.70;;;1.20;;
44228;SDS011;29904;51.058;5.378;2022-10-16T06:58:52;1.50;;;1.20;;
44228;SDS011;29904;51.058;5.378;2022-10-16T07:01:18;2.63;;;1.13;;
44228;SDS011;29904;51.058;5.378;2022-10-16T07:03:47;3.25;;;1.35;;
44228;SDS011;29904;51.058;5.378;2022-10-16T07:06:18;2.55;;;1.13;;
44228;SDS011;29904;51.058;5.378;2022-10-16T07:08:46;3.08;;;1.30;;
44228;SDS011;29904;51.058;5.378;2022-10-16T07:11:14;2.70;;;1.23;;
44228;SDS011;29904;51.058;5.378;2022-10-16T07:13:42;2.22;;;1.10;;
44228;SDS011;29904;51.058;5.378;2022-10-16T07:16:13;2.47;;;1.27;;
44228;SDS011;29904;51.058;5.378;2022-10-16T07:18:40;2.15;;;1.10;;
44228;SDS011;29904;51.058;5.378;2022-10-16T07:21:17;4.03;;;1.20;;
44228;SDS011;29904;51.058;5.378;2022-10-16T07:23:45;2.22;;;1.17;;
44228;SDS011;29904;51.058;5.378;2022-10-16T07:26:15;2.20;;;1.40;;
44228;SDS011;29904;51.058;5.378;2022-10-16T07:28:43;3.10;;;1.33;;
44228;SDS011;29904;51.058;5.378;2022-10-16T07:31:10;1.88;;;1.13;;
44228;SDS011;29904;51.058;5.378;2022-10-16T07:33:37;2.17;;;1.10;;
44228;SDS011;29904;51.058;5.378;2022-10-16T07:36:06;2.00;;;1.10;;
44228;SDS011;29904;51.058;5.378;2022-10-16T07:38:33;2.08;;;1.17;;
44228;SDS011;29904;51.058;5.378;2022-10-16T07:40:59;1.63;;;1.00;;
44228;SDS011;29904;51.058;5.378;2022-10-16T07:43:26;1.90;;;0.90;;
44228;SDS011;29904;51.058;5.378;2022-10-16T07:45:53;3.67;;;1.02;;
44228;SDS011;29904;51.058;5.378;2022-10-16T07:48:20;2.40;;;1.10;;
44228;SDS011;29904;51.058;5.378;2022-10-16T07:50:46;1.95;;;1.02;;
44228;SDS011;29904;51.058;5.378;2022-10-16T07:53:14;2.50;;;1.10;;
44228;SDS011;29904;51.058;5.378;2022-10-16T07:55:40;1.58;;;1.10;;
44228;SDS011;29904;51.058;5.378;2022-10-16T07:58:06;2.92;;;1.13;;
44228;SDS011;29904;51.058;5.378;2022-10-16T08:00:35;3.42;;;1.10;;
44228;SDS011;29904;51.058;5.378;2022-10-16T08:03:02;2.40;;;1.05;;
44228;SDS011;29904;51.058;5.378;2022-10-16T08:05:28;1.40;;;1.00;;
44228;SDS011;29904;51.058;5.378;2022-10-16T08:07:56;1.48;;;0.90;;
44228;SDS011;29904;51.058;5.378;2022-10-16T08:10:23;3.03;;;1.02;;
44228;SDS011;29904;51.058;5.378;2022-10-16T08:12:51;3.20;;;1.10;;
44228;SDS011;29904;51.058;5.378;2022-10-16T08:15:19;2.70;;;1.08;;
44228;SDS011;29904;51.058;5.378;2022-10-16T08:17:53;2.08;;;0.88;;
44228;SDS011;29904;51.058;5.378;2022-10-16T08:20:20;2.65;;;1.00;;
44228;SDS011;29904;51.058;5.378;2022-10-16T08:22:46;3.90;;;1.10;;
44228;SDS011;29904;51.058;5.378;2022-10-16T08:25:11;1.63;;;1.02;;
44228;SDS011;29904;51.058;5.378;2022-10-16T08:27:37;1.65;;;0.88;;
44228;SDS011;29904;51.058;5.378;2022-10-16T08:30:03;3.03;;;0.97;;
44228;SDS011;29904;51.058;5.378;2022-10-16T08:32:31;1.85;;;1.20;;
44228;SDS011;29904;51.058;5.378;2022-10-16T08:34:57;3.03;;;1.30;;
44228;SDS011;29904;51.058;5.378;2022-10-16T08:37:22;3.93;;;1.10;;
44228;SDS011;29904;51.058;5.378;2022-10-16T08:39:48;2.30;;;1.05;;
44228;SDS011;29904;51.058;5.378;2022-10-16T08:42:22;3.15;;;1.10;;
44228;SDS011;29904;51.058;5.378;2022-10-16T08:50:41;2.42;;;0.90;;
44228;SDS011;29904;51.058;5.378;2022-10-16T08:53:09;2.08;;;0.80;;
44228;SDS011;29904;51.058;5.378;2022-10-16T08:55:41;3.78;;;0.90;;
44228;SDS011;29904;51.058;5.378;2022-10-16T08:58:22;1.87;;;0.90;;
44228;SDS011;29904;51.058;5.378;2022-10-16T09:00:55;1.58;;;0.80;;
44228;SDS011;29904;51.058;5.378;2022-10-16T09:09:20;1.90;;;0.80;;
44228;SDS011;29904;51.058;5.378;2022-10-16T09:14:37;3.25;;;0.90;;
44228;SDS011;29904;51.058;5.378;2022-10-16T09:22:40;1.92;;;0.70;;
44228;SDS011;29904;51.058;5.378;2022-10-16T09:25:12;2.30;;;0.90;;
44228;SDS011;29904;51.058;5.378;2022-10-16T09:27:44;3.25;;;0.85;;
44228;SDS011;29904;51.058;5.378;2022-10-16T09:30:19;2.10;;;0.70;;
44228;SDS011;29904;51.058;5.378;2022-10-16T09:32:46;3.13;;;0.90;;
44228;SDS011;29904;51.058;5.378;2022-10-16T09:35:16;1.88;;;0.85;;
44228;SDS011;29904;51.058;5.378;2022-10-16T09:37:48;2.78;;;0.90;;
44228;SDS011;29904;51.058;5.378;2022-10-16T09:40:29;1.67;;;0.77;;
44228;SDS011;29904;51.058;5.378;2022-10-16T09:42:57;2.75;;;0.82;;
44228;SDS011;29904;51.058;5.378;2022-10-16T09:45:53;3.30;;;0.80;;
44228;SDS011;29904;51.058;5.378;2022-10-16T09:48:20;2.40;;;0.70;;
44228;SDS011;29904;51.058;5.378;2022-10-16T09:50:59;2.80;;;0.97;;
44228;SDS011;29904;51.058;5.378;2022-10-16T09:53:43;3.10;;;0.88;;
44228;SDS011;29904;51.058;5.378;2022-10-16T09:56:11;4.07;;;1.10;;
44228;SDS011;29904;51.058;5.378;2022-10-16T09:58:53;2.70;;;0.80;;
44228;SDS011;29904;51.058;5.378;2022-10-16T10:01:27;3.83;;;0.80;;
44228;SDS011;29904;51.058;5.378;2022-10-16T10:04:03;2.23;;;0.70;;
44228;SDS011;29904;51.058;5.378;2022-10-16T10:06:36;4.15;;;0.90;;
44228;SDS011;29904;51.058;5.378;2022-10-16T10:12:44;5.70;;;1.33;;
44228;SDS011;29904;51.058;5.378;2022-10-16T10:15:11;3.88;;;1.60;;
44228;SDS011;29904;51.058;5.378;2022-10-16T10:18:15;3.35;;;1.00;;
44228;SDS011;29904;51.058;5.378;2022-10-16T10:20:41;3.10;;;1.00;;
44228;SDS011;29904;51.058;5.378;2022-10-16T10:23:23;4.63;;;0.82;;
44228;SDS011;29904;51.058;5.378;2022-10-16T10:28:46;3.00;;;1.10;;
44228;SDS011;29904;51.058;5.378;2022-10-16T10:31:30;5.38;;;0.90;;
44228;SDS011;29904;51.058;5.378;2022-10-16T10:36:40;3.75;;;0.90;;
44228;SDS011;29904;51.058;5.378;2022-10-16T10:47:45;2.13;;;0.77;;
44228;SDS011;29904;51.058;5.378;2022-10-16T10:50:23;2.30;;;0.70;;
44228;SDS011;29904;51.058;5.378;2022-10-16T10:58:42;3.17;;;0.70;;
44228;SDS011;29904;51.058;5.378;2022-10-16T11:01:36;1.88;;;0.60;;
44228;SDS011;29904;51.058;5.378;2022-10-16T11:07:28;3.92;;;0.80;;
44228;SDS011;29904;51.058;5.378;2022-10-16T11:10:01;4.47;;;0.70;;
44228;SDS011;29904;51.058;5.378;2022-10-16T11:12:31;1.52;;;0.40;;
44228;SDS011;29904;51.058;5.378;2022-10-16T11:20:47;1.70;;;0.60;;
44228;SDS011;29904;51.058;5.378;2022-10-16T11:26:04;3.35;;;0.82;;
44228;SDS011;29904;51.058;5.378;2022-10-16T11:28:37;2.47;;;0.60;;
44228;SDS011;29904;51.058;5.378;2022-10-16T11:31:22;2.80;;;0.70;;
44228;SDS011;29904;51.058;5.378;2022-10-16T11:39:21;4.23;;;0.90;;
44228;SDS011;29904;51.058;5.378;2022-10-16T11:41:53;2.60;;;0.70;;
44228;SDS011;29904;51.058;5.378;2022-10-16T11:47:32;2.00;;;0.60;;
44228;SDS011;29904;51.058;5.378;2022-10-16T11:50:23;1.35;;;0.60;;
44228;SDS011;29904;51.058;5.378;2022-10-16T11:55:36;3.90;;;0.57;;
44228;SDS011;29904;51.058;5.378;2022-10-16T12:01:13;2.22;;;0.60;;
44228;SDS011;29904;51.058;5.378;2022-10-16T12:06:40;2.58;;;0.57;;
44228;SDS011;29904;51.058;5.378;2022-10-16T12:09:41;1.50;;;0.45;;
44228;SDS011;29904;51.058;5.378;2022-10-16T12:12:01;2.20;;;0.50;;
44228;SDS011;29904;51.058;5.378;2022-10-16T12:14:35;1.83;;;0.40;;
44228;SDS011;29904;51.058;5.378;2022-10-16T12:19:30;1.20;;;0.43;;
44228;SDS011;29904;51.058;5.378;2022-10-16T12:21:58;2.23;;;0.70;;
44228;SDS011;29904;51.058;5.378;2022-10-16T12:27:00;1.17;;;0.50;;
44228;SDS011;29904;51.058;5.378;2022-10-16T12:29:36;1.95;;;0.60;;
44228;SDS011;29904;51.058;5.378;2022-10-16T12:32:05;2.53;;;0.50;;
44228;SDS011;29904;51.058;5.378;2022-10-16T12:34:47;1.33;;;0.50;;
44228;SDS011;29904;51.058;5.378;2022-10-16T12:40:12;1.75;;;0.50;;
44228;SDS011;29904;51.058;5.378;2022-10-16T12:42:48;2.63;;;0.70;;
44228;SDS011;29904;51.058;5.378;2022-10-16T12:45:32;2.20;;;0.50;;
44228;SDS011;29904;51.058;5.378;2022-10-16T12:48:04;1.58;;;0.50;;
44228;SDS011;29904;51.058;5.378;2022-10-16T12:50:45;2.25;;;0.50;;
44228;SDS011;29904;51.058;5.378;2022-10-16T12:53:18;2.70;;;0.40;;
44228;SDS011;29904;51.058;5.378;2022-10-16T12:55:57;2.88;;;0.63;;
44228;SDS011;29904;51.058;5.378;2022-10-16T13:04:10;1.50;;;0.40;;
44228;SDS011;29904;51.058;5.378;2022-10-16T13:06:52;1.58;;;0.50;;
44228;SDS011;29904;51.058;5.378;2022-10-16T13:09:41;1.52;;;0.43;;
44228;SDS011;29904;51.058;5.378;2022-10-16T13:20:28;2.38;;;0.50;;
44228;SDS011;29904;51.058;5.378;2022-10-16T13:26:26;1.55;;;0.50;;
44228;SDS011;29904;51.058;5.378;2022-10-16T13:29:14;2.65;;;0.50;;
44228;SDS011;29904;51.058;5.378;2022-10-16T13:31:40;2.05;;;0.50;;
44228;SDS011;29904;51.058;5.378;2022-10-16T13:34:12;2.58;;;0.60;;
44228;SDS011;29904;51.058;5.378;2022-10-16T13:36:45;1.63;;;0.50;;
44228;SDS011;29904;51.058;5.378;2022-10-16T13:41:52;2.03;;;0.40;;
44228;SDS011;29904;51.058;5.378;2022-10-16T13:44:26;1.05;;;0.35;;
44228;SDS011;29904;51.058;5.378;2022-10-16T13:46:58;1.53;;;0.50;;
44228;SDS011;29904;51.058;5.378;2022-10-16T13:49:27;1.48;;;0.40;;
44228;SDS011;29904;51.058;5.378;2022-10-16T13:51:54;2.92;;;0.52;;
44228;SDS011;29904;51.058;5.378;2022-10-16T13:54:21;1.30;;;0.40;;
44228;SDS011;29904;51.058;5.378;2022-10-16T13:56:47;1.30;;;0.60;;
44228;SDS011;29904;51.058;5.378;2022-10-16T13:59:24;2.37;;;0.60;;
44228;SDS011;29904;51.058;5.378;2022-10-16T14:01:51;3.47;;;1.30;;
44228;SDS011;29904;51.058;5.378;2022-10-16T14:04:20;2.15;;;0.60;;
44228;SDS011;29904;51.058;5.378;2022-10-16T14:06:48;3.13;;;0.90;;
44228;SDS011;29904;51.058;5.378;2022-10-16T14:09:25;2.08;;;0.60;;
44228;SDS011;29904;51.058;5.378;2022-10-16T14:11:55;3.03;;;0.77;;
44228;SDS011;29904;51.058;5.378;2022-10-16T14:14:39;1.90;;;0.75;;
44228;SDS011;29904;51.058;5.378;2022-10-16T14:17:13;2.72;;;0.95;;
44228;SDS011;29904;51.058;5.378;2022-10-16T14:19:50;1.20;;;0.65;;
44228;SDS011;29904;51.058;5.378;2022-10-16T14:22:24;1.85;;;0.60;;
44228;SDS011;29904;51.058;5.378;2022-10-16T14:24:58;2.53;;;0.47;;
44228;SDS011;29904;51.058;5.378;2022-10-16T14:27:34;1.63;;;0.60;;
44228;SDS011;29904;51.058;5.378;2022-10-16T14:32:42;2.20;;;0.70;;
44228;SDS011;29904;51.058;5.378;2022-10-16T14:35:24;2.37;;;0.60;;
44228;SDS011;29904;51.058;5.378;2022-10-16T14:37:53;2.88;;;0.50;;
44228;SDS011;29904;51.058;5.378;2022-10-16T14:40:23;0.80;;;0.30;;
44228;SDS011;29904;51.058;5.378;2022-10-16T14:42:50;2.33;;;0.47;;
44228;SDS011;29904;51.058;5.378;2022-10-16T14:45:24;2.30;;;0.28;;
44228;SDS011;29904;51.058;5.378;2022-10-16T14:47:52;2.45;;;0.40;;
44228;SDS011;29904;51.058;5.378;2022-10-16T14:50:20;2.57;;;0.30;;
44228;SDS011;29904;51.058;5.378;2022-10-16T14:52:46;1.48;;;0.50;;
44228;SDS011;29904;51.058;5.378;2022-10-16T14:55:13;2.67;;;1.07;;
44228;SDS011;29904;51.058;5.378;2022-10-16T14:57:42;2.45;;;0.90;;
44228;SDS011;29904;51.058;5.378;2022-10-16T15:02:45;2.55;;;0.63;;
44228;SDS011;29904;51.058;5.378;2022-10-16T15:05:25;1.02;;;0.50;;
44228;SDS011;29904;51.058;5.378;2022-10-16T15:07:54;2.30;;;0.50;;
44228;SDS011;29904;51.058;5.378;2022-10-16T15:10:21;1.08;;;0.40;;
44228;SDS011;29904;51.058;5.378;2022-10-16T15:12:48;2.92;;;0.43;;
44228;SDS011;29904;51.058;5.378;2022-10-16T15:17:51;0.95;;;0.35;;
44228;SDS011;29904;51.058;5.378;2022-10-16T15:20:25;3.88;;;0.50;;
44228;SDS011;29904;51.058;5.378;2022-10-16T15:22:53;2.50;;;0.93;;
44228;SDS011;29904;51.058;5.378;2022-10-16T15:28:06;1.50;;;0.80;;
44228;SDS011;29904;51.058;5.378;2022-10-16T15:30:33;1.90;;;0.60;;
44228;SDS011;29904;51.058;5.378;2022-10-16T15:33:00;3.15;;;1.00;;
44228;SDS011;29904;51.058;5.378;2022-10-16T15:35:26;2.35;;;0.80;;
44228;SDS011;29904;51.058;5.378;2022-10-16T15:37:52;3.78;;;1.30;;
44228;SDS011;29904;51.058;5.378;2022-10-16T15:40:18;6.40;;;1.92;;
44228;SDS011;29904;51.058;5.378;2022-10-16T15:42:44;4.77;;;1.80;;
44228;SDS011;29904;51.058;5.378;2022-10-16T15:45:10;3.27;;;1.33;;
44228;SDS011;29904;51.058;5.378;2022-10-16T15:47:38;3.22;;;1.20;;
44228;SDS011;29904;51.058;5.378;2022-10-16T15:50:05;3.15;;;1.15;;
44228;SDS011;29904;51.058;5.378;2022-10-16T15:52:31;4.25;;;1.10;;
44228;SDS011;29904;51.058;5.378;2022-10-16T15:54:57;3.10;;;1.02;;
44228;SDS011;29904;51.058;5.378;2022-10-16T15:57:27;2.58;;;1.23;;
44228;SDS011;29904;51.058;5.378;2022-10-16T15:59:53;3.33;;;1.40;;
44228;SDS011;29904;51.058;5.378;2022-10-16T16:02:19;2.40;;;1.03;;
44228;SDS011;29904;51.058;5.378;2022-10-16T16:04:46;2.30;;;0.95;;
44228;SDS011;29904;51.058;5.378;2022-10-16T16:07:12;2.35;;;0.80;;
44228;SDS011;29904;51.058;5.378;2022-10-16T16:09:38;3.90;;;0.97;;
44228;SDS011;29904;51.058;5.378;2022-10-16T16:12:03;3.42;;;0.88;;
44228;SDS011;29904;51.058;5.378;2022-10-16T16:14:29;1.92;;;1.00;;
44228;SDS011;29904;51.058;5.378;2022-10-16T16:16:55;3.70;;;1.10;;
44228;SDS011;29904;51.058;5.378;2022-10-16T16:19:23;2.67;;;1.00;;
44228;SDS011;29904;51.058;5.378;2022-10-16T16:21:49;2.10;;;1.05;;
44228;SDS011;29904;51.058;5.378;2022-10-16T16:24:15;2.07;;;1.20;;
44228;SDS011;29904;51.058;5.378;2022-10-16T16:26:41;4.00;;;1.60;;
44228;SDS011;29904;51.058;5.378;2022-10-16T16:29:12;3.20;;;1.40;;
44228;SDS011;29904;51.058;5.378;2022-10-16T16:31:39;4.22;;;1.60;;
44228;SDS011;29904;51.058;5.378;2022-10-16T16:34:07;4.05;;;1.42;;
44228;SDS011;29904;51.058;5.378;2022-10-16T16:36:33;3.10;;;1.40;;
44228;SDS011;29904;51.058;5.378;2022-10-16T16:38:59;2.08;;;1.27;;
44228;SDS011;29904;51.058;5.378;2022-10-16T16:41:26;3.28;;;1.30;;
44228;SDS011;29904;51.058;5.378;2022-10-16T16:43:54;2.90;;;1.20;;
44228;SDS011;29904;51.058;5.378;2022-10-16T16:46:20;2.60;;;1.10;;
44228;SDS011;29904;51.058;5.378;2022-10-16T16:48:46;3.40;;;1.27;;
44228;SDS011;29904;51.058;5.378;2022-10-16T16:51:15;4.25;;;1.65;;
44228;SDS011;29904;51.058;5.378;2022-10-16T16:53:45;2.80;;;1.30;;
44228;SDS011;29904;51.058;5.378;2022-10-16T16:56:13;3.70;;;1.40;;
44228;SDS011;29904;51.058;5.378;2022-10-16T16:58:39;4.95;;;1.80;;
44228;SDS011;29904;51.058;5.378;2022-10-16T17:01:06;2.90;;;1.77;;
44228;SDS011;29904;51.058;5.378;2022-10-16T17:03:34;3.95;;;2.42;;
44228;SDS011;29904;51.058;5.378;2022-10-16T17:08:28;5.43;;;3.58;;
44228;SDS011;29904;51.058;5.378;2022-10-16T17:10:55;3.83;;;2.30;;
44228;SDS011;29904;51.058;5.378;2022-10-16T17:13:25;3.30;;;1.63;;
44228;SDS011;29904;51.058;5.378;2022-10-16T17:15:52;3.80;;;1.40;;
44228;SDS011;29904;51.058;5.378;2022-10-16T17:18:19;3.65;;;1.50;;